sensor_id;sensor_type;location;lat;lon;timestamp;temperature;humidity
19898;DHT22;10111;50.814;4.572;2023-07-24T00:01:59;19.80;99.90
19898;DHT22;10111;50.814;4.572;2023-07-24T00:04:25;19.70;99.90
19898;DHT22;10111;50.814;4.572;2023-07-24T00:06:51;19.80;99.90
19898;DHT22;10111;50.814;4.572;2023-07-24T00:09:16;19.80;99.90
19898;DHT22;10111;50.814;4.572;2023-07-24T00:11:42;19.80;99.90
19898;DHT22;10111;50.814;4.572;2023-07-24T00:14:07;19.80;99.90
19898;DHT22;10111;50.814;4.572;2023-07-24T00:16:33;19.90;99.90
19898;DHT22;10111;50.814;4.572;2023-07-24T00:18:59;19.90;99.90
19898;DHT22;10111;50.814;4.572;2023-07-24T00:21:24;19.90;99.90
19898;DHT22;10111;50.814;4.572;2023-07-24T00:23:50;20.00;99.90
19898;DHT22;10111;50.814;4.572;2023-07-24T00:26:16;20.00;99.90
19898;DHT22;10111;50.814;4.572;2023-07-24T00:28:41;20.00;99.90
19898;DHT22;10111;50.814;4.572;2023-07-24T00:31:07;20.00;99.90
19898;DHT22;10111;50.814;4.572;2023-07-24T00:33:32;20.00;99.90
19898;DHT22;10111;50.814;4.572;2023-07-24T00:35:58;20.00;99.90
19898;DHT22;10111;50.814;4.572;2023-07-24T00:38:24;19.90;99.90
19898;DHT22;10111;50.814;4.572;2023-07-24T00:40:50;19.90;99.90
19898;DHT22;10111;50.814;4.572;2023-07-24T00:43:16;19.80;99.90
19898;DHT22;10111;50.814;4.572;2023-07-24T00:45:42;19.90;99.90
19898;DHT22;10111;50.814;4.572;2023-07-24T00:48:09;19.90;99.90
19898;DHT22;10111;50.814;4.572;2023-07-24T00:50:36;19.90;99.90
19898;DHT22;10111;50.814;4.572;2023-07-24T00:53:03;19.90;99.90
19898;DHT22;10111;50.814;4.572;2023-07-24T00:55:29;19.90;99.90
19898;DHT22;10111;50.814;4.572;2023-07-24T00:57:57;19.90;99.90
19898;DHT22;10111;50.814;4.572;2023-07-24T01:00:23;20.00;99.90
19898;DHT22;10111;50.814;4.572;2023-07-24T01:02:49;20.00;99.90
19898;DHT22;10111;50.814;4.572;2023-07-24T01:05:15;20.00;99.90
19898;DHT22;10111;50.814;4.572;2023-07-24T01:07:41;20.00;99.90
19898;DHT22;10111;50.814;4.572;2023-07-24T01:10:07;20.10;99.90
19898;DHT22;10111;50.814;4.572;2023-07-24T01:12:44;20.10;99.90
19898;DHT22;10111;50.814;4.572;2023-07-24T01:15:26;20.10;99.90
19898;DHT22;10111;50.814;4.572;2023-07-24T01:18:00;20.10;99.90
19898;DHT22;10111;50.814;4.572;2023-07-24T01:20:29;20.10;99.90
19898;DHT22;10111;50.814;4.572;2023-07-24T01:23:13;20.10;99.90
19898;DHT22;10111;50.814;4.572;2023-07-24T01:25:57;20.20;99.90
19898;DHT22;10111;50.814;4.572;2023-07-24T01:28:24;20.20;99.90
19898;DHT22;10111;50.814;4.572;2023-07-24T01:30:50;20.20;99.90
19898;DHT22;10111;50.814;4.572;2023-07-24T01:33:17;20.20;99.90
19898;DHT22;10111;50.814;4.572;2023-07-24T01:35:44;20.20;99.90
19898;DHT22;10111;50.814;4.572;2023-07-24T01:38:13;20.00;99.90
19898;DHT22;10111;50.814;4.572;2023-07-24T01:40:40;20.00;99.90
19898;DHT22;10111;50.814;4.572;2023-07-24T01:43:06;19.90;99.90
19898;DHT22;10111;50.814;4.572;2023-07-24T01:45:32;19.90;99.90
19898;DHT22;10111;50.814;4.572;2023-07-24T01:47:58;19.90;99.90
19898;DHT22;10111;50.814;4.572;2023-07-24T01:50:24;20.00;99.90
19898;DHT22;10111;50.814;4.572;2023-07-24T01:52:50;20.00;99.90
19898;DHT22;10111;50.814;4.572;2023-07-24T01:55:15;20.10;99.90
19898;DHT22;10111;50.814;4.572;2023-07-24T01:57:41;20.10;99.90
19898;DHT22;10111;50.814;4.572;2023-07-24T02:00:07;20.10;99.90
19898;DHT22;10111;50.814;4.572;2023-07-24T02:02:33;20.20;99.90
19898;DHT22;10111;50.814;4.572;2023-07-24T02:04:58;20.20;99.90
19898;DHT22;10111;50.814;4.572;2023-07-24T02:07:24;20.20;99.90
19898;DHT22;10111;50.814;4.572;2023-07-24T02:09:50;20.10;99.90
19898;DHT22;10111;50.814;4.572;2023-07-24T02:12:15;19.90;99.90
19898;DHT22;10111;50.814;4.572;2023-07-24T02:14:41;19.80;99.90
19898;DHT22;10111;50.814;4.572;2023-07-24T02:17:07;19.80;99.90
19898;DHT22;10111;50.814;4.572;2023-07-24T02:19:32;19.80;99.90
19898;DHT22;10111;50.814;4.572;2023-07-24T02:21:58;19.70;99.90
19898;DHT22;10111;50.814;4.572;2023-07-24T02:24:24;19.60;99.90
19898;DHT22;10111;50.814;4.572;2023-07-24T02:26:49;19.70;99.90
19898;DHT22;10111;50.814;4.572;2023-07-24T02:29:15;19.80;99.90
19898;DHT22;10111;50.814;4.572;2023-07-24T02:31:41;19.70;99.90
19898;DHT22;10111;50.814;4.572;2023-07-24T02:34:06;19.70;99.90
19898;DHT22;10111;50.814;4.572;2023-07-24T02:36:32;19.70;99.90
19898;DHT22;10111;50.814;4.572;2023-07-24T02:38:58;19.70;99.90
19898;DHT22;10111;50.814;4.572;2023-07-24T02:41:23;19.80;99.90
19898;DHT22;10111;50.814;4.572;2023-07-24T02:43:49;19.80;99.90
19898;DHT22;10111;50.814;4.572;2023-07-24T02:46:14;19.80;99.90
19898;DHT22;10111;50.814;4.572;2023-07-24T02:48:40;19.80;99.90
19898;DHT22;10111;50.814;4.572;2023-07-24T02:51:06;19.70;99.90
19898;DHT22;10111;50.814;4.572;2023-07-24T02:53:31;19.70;99.90
19898;DHT22;10111;50.814;4.572;2023-07-24T02:55:57;19.80;99.90
19898;DHT22;10111;50.814;4.572;2023-07-24T02:58:23;19.70;99.90
19898;DHT22;10111;50.814;4.572;2023-07-24T03:00:48;19.70;99.90
19898;DHT22;10111;50.814;4.572;2023-07-24T03:03:14;19.80;99.90
19898;DHT22;10111;50.814;4.572;2023-07-24T03:05:39;19.80;99.90
19898;DHT22;10111;50.814;4.572;2023-07-24T03:08:05;19.80;99.90
19898;DHT22;10111;50.814;4.572;2023-07-24T03:10:31;19.70;99.90
19898;DHT22;10111;50.814;4.572;2023-07-24T03:12:56;19.80;99.90
19898;DHT22;10111;50.814;4.572;2023-07-24T03:15:22;19.90;99.90
19898;DHT22;10111;50.814;4.572;2023-07-24T03:17:48;19.80;99.90
19898;DHT22;10111;50.814;4.572;2023-07-24T03:20:16;19.70;99.90
19898;DHT22;10111;50.814;4.572;2023-07-24T03:22:43;19.60;99.90
19898;DHT22;10111;50.814;4.572;2023-07-24T03:25:09;19.60;99.90
19898;DHT22;10111;50.814;4.572;2023-07-24T03:27:35;19.50;99.90
19898;DHT22;10111;50.814;4.572;2023-07-24T03:30:00;19.50;99.90
19898;DHT22;10111;50.814;4.572;2023-07-24T03:32:26;19.60;99.90
19898;DHT22;10111;50.814;4.572;2023-07-24T03:34:52;19.60;99.90
19898;DHT22;10111;50.814;4.572;2023-07-24T03:37:18;19.50;99.90
19898;DHT22;10111;50.814;4.572;2023-07-24T03:39:43;19.60;99.90
19898;DHT22;10111;50.814;4.572;2023-07-24T03:42:14;19.50;99.90
19898;DHT22;10111;50.814;4.572;2023-07-24T03:44:49;19.40;99.90
19898;DHT22;10111;50.814;4.572;2023-07-24T03:47:14;19.40;99.90
19898;DHT22;10111;50.814;4.572;2023-07-24T03:49:40;19.20;99.90
19898;DHT22;10111;50.814;4.572;2023-07-24T03:52:06;19.20;99.90
19898;DHT22;10111;50.814;4.572;2023-07-24T03:54:31;19.10;99.90
19898;DHT22;10111;50.814;4.572;2023-07-24T03:56:57;19.00;99.90
19898;DHT22;10111;50.814;4.572;2023-07-24T03:59:22;19.00;99.90
19898;DHT22;10111;50.814;4.572;2023-07-24T04:01:48;19.00;99.90
19898;DHT22;10111;50.814;4.572;2023-07-24T04:04:14;19.00;99.90
19898;DHT22;10111;50.814;4.572;2023-07-24T04:06:39;19.00;99.90
19898;DHT22;10111;50.814;4.572;2023-07-24T04:09:05;19.00;99.90
19898;DHT22;10111;50.814;4.572;2023-07-24T04:11:31;19.00;99.90
19898;DHT22;10111;50.814;4.572;2023-07-24T04:13:56;19.00;99.90
19898;DHT22;10111;50.814;4.572;2023-07-24T04:16:22;19.00;99.90
19898;DHT22;10111;50.814;4.572;2023-07-24T04:18:47;19.00;99.90
19898;DHT22;10111;50.814;4.572;2023-07-24T04:21:13;19.00;99.90
19898;DHT22;10111;50.814;4.572;2023-07-24T04:23:39;19.00;99.90
19898;DHT22;10111;50.814;4.572;2023-07-24T04:26:04;19.00;99.90
19898;DHT22;10111;50.814;4.572;2023-07-24T04:28:30;19.10;99.90
19898;DHT22;10111;50.814;4.572;2023-07-24T04:30:59;19.10;99.90
19898;DHT22;10111;50.814;4.572;2023-07-24T04:33:24;19.20;99.90
19898;DHT22;10111;50.814;4.572;2023-07-24T04:35:53;19.10;99.90
19898;DHT22;10111;50.814;4.572;2023-07-24T04:38:19;19.10;99.90
19898;DHT22;10111;50.814;4.572;2023-07-24T04:40:45;19.20;99.90
19898;DHT22;10111;50.814;4.572;2023-07-24T04:43:10;19.20;99.90
19898;DHT22;10111;50.814;4.572;2023-07-24T04:45:36;19.30;99.90
19898;DHT22;10111;50.814;4.572;2023-07-24T04:48:02;19.40;99.90
19898;DHT22;10111;50.814;4.572;2023-07-24T04:50:27;19.40;99.90
19898;DHT22;10111;50.814;4.572;2023-07-24T04:52:53;19.40;99.90
19898;DHT22;10111;50.814;4.572;2023-07-24T04:55:19;19.40;99.90
19898;DHT22;10111;50.814;4.572;2023-07-24T04:57:44;19.40;99.90
19898;DHT22;10111;50.814;4.572;2023-07-24T05:00:10;19.40;99.90
19898;DHT22;10111;50.814;4.572;2023-07-24T05:02:36;19.40;99.90
19898;DHT22;10111;50.814;4.572;2023-07-24T05:05:02;19.40;99.90
19898;DHT22;10111;50.814;4.572;2023-07-24T05:07:27;19.50;99.90
19898;DHT22;10111;50.814;4.572;2023-07-24T05:09:53;19.50;99.90
19898;DHT22;10111;50.814;4.572;2023-07-24T05:12:19;19.60;99.90
19898;DHT22;10111;50.814;4.572;2023-07-24T05:14:44;19.50;99.90
19898;DHT22;10111;50.814;4.572;2023-07-24T05:17:10;19.50;99.90
19898;DHT22;10111;50.814;4.572;2023-07-24T05:19:36;19.60;99.90
19898;DHT22;10111;50.814;4.572;2023-07-24T05:22:01;19.60;99.90
19898;DHT22;10111;50.814;4.572;2023-07-24T05:24:27;19.60;99.90
19898;DHT22;10111;50.814;4.572;2023-07-24T05:26:53;19.70;99.90
19898;DHT22;10111;50.814;4.572;2023-07-24T05:29:18;19.70;99.90
19898;DHT22;10111;50.814;4.572;2023-07-24T05:31:44;19.60;99.90
19898;DHT22;10111;50.814;4.572;2023-07-24T05:34:10;19.70;99.90
19898;DHT22;10111;50.814;4.572;2023-07-24T05:36:35;19.60;99.90
19898;DHT22;10111;50.814;4.572;2023-07-24T05:39:01;19.70;99.90
19898;DHT22;10111;50.814;4.572;2023-07-24T05:41:26;19.70;99.90
19898;DHT22;10111;50.814;4.572;2023-07-24T05:43:52;19.80;99.90
19898;DHT22;10111;50.814;4.572;2023-07-24T05:46:18;19.70;99.90
19898;DHT22;10111;50.814;4.572;2023-07-24T05:48:43;19.70;99.90
19898;DHT22;10111;50.814;4.572;2023-07-24T05:51:09;19.70;99.90
19898;DHT22;10111;50.814;4.572;2023-07-24T05:53:34;19.70;99.90
19898;DHT22;10111;50.814;4.572;2023-07-24T05:56:01;19.80;99.90
19898;DHT22;10111;50.814;4.572;2023-07-24T05:58:27;19.80;99.90
19898;DHT22;10111;50.814;4.572;2023-07-24T06:00:53;20.00;99.90
19898;DHT22;10111;50.814;4.572;2023-07-24T06:03:20;20.10;99.90
19898;DHT22;10111;50.814;4.572;2023-07-24T06:05:45;20.20;99.90
19898;DHT22;10111;50.814;4.572;2023-07-24T06:08:14;20.30;99.90
19898;DHT22;10111;50.814;4.572;2023-07-24T06:10:39;20.30;99.90
19898;DHT22;10111;50.814;4.572;2023-07-24T06:13:05;20.30;99.90
19898;DHT22;10111;50.814;4.572;2023-07-24T06:15:30;20.50;99.90
19898;DHT22;10111;50.814;4.572;2023-07-24T06:17:57;20.90;99.90
19898;DHT22;10111;50.814;4.572;2023-07-24T06:20:22;21.00;99.90
19898;DHT22;10111;50.814;4.572;2023-07-24T06:22:48;21.00;99.90
19898;DHT22;10111;50.814;4.572;2023-07-24T06:25:13;20.80;99.90
19898;DHT22;10111;50.814;4.572;2023-07-24T06:27:39;20.70;99.90
19898;DHT22;10111;50.814;4.572;2023-07-24T06:30:05;20.60;99.90
19898;DHT22;10111;50.814;4.572;2023-07-24T06:32:31;20.60;99.90
19898;DHT22;10111;50.814;4.572;2023-07-24T06:34:57;20.60;99.90
19898;DHT22;10111;50.814;4.572;2023-07-24T06:37:22;20.50;99.90
19898;DHT22;10111;50.814;4.572;2023-07-24T06:39:48;20.50;99.90
19898;DHT22;10111;50.814;4.572;2023-07-24T06:42:13;20.70;99.90
19898;DHT22;10111;50.814;4.572;2023-07-24T06:44:39;20.80;99.90
19898;DHT22;10111;50.814;4.572;2023-07-24T06:47:05;21.00;99.90
19898;DHT22;10111;50.814;4.572;2023-07-24T06:49:30;21.20;99.90
19898;DHT22;10111;50.814;4.572;2023-07-24T06:51:56;21.20;99.90
19898;DHT22;10111;50.814;4.572;2023-07-24T06:54:22;21.10;99.90
19898;DHT22;10111;50.814;4.572;2023-07-24T06:56:47;21.20;99.90
19898;DHT22;10111;50.814;4.572;2023-07-24T06:59:13;21.50;99.90
19898;DHT22;10111;50.814;4.572;2023-07-24T07:01:38;21.60;99.90
19898;DHT22;10111;50.814;4.572;2023-07-24T07:04:04;21.70;99.90
19898;DHT22;10111;50.814;4.572;2023-07-24T07:06:30;21.70;99.90
19898;DHT22;10111;50.814;4.572;2023-07-24T07:08:55;21.80;99.90
19898;DHT22;10111;50.814;4.572;2023-07-24T07:11:21;21.80;99.90
19898;DHT22;10111;50.814;4.572;2023-07-24T07:13:47;21.90;99.90
19898;DHT22;10111;50.814;4.572;2023-07-24T07:16:12;22.20;99.90
19898;DHT22;10111;50.814;4.572;2023-07-24T07:18:38;22.20;99.90
19898;DHT22;10111;50.814;4.572;2023-07-24T07:21:03;22.20;99.90
19898;DHT22;10111;50.814;4.572;2023-07-24T07:23:29;22.20;99.90
19898;DHT22;10111;50.814;4.572;2023-07-24T07:25:55;22.00;99.90
19898;DHT22;10111;50.814;4.572;2023-07-24T07:28:20;21.90;99.90
19898;DHT22;10111;50.814;4.572;2023-07-24T07:30:46;21.80;99.90
19898;DHT22;10111;50.814;4.572;2023-07-24T07:33:12;21.80;99.90
19898;DHT22;10111;50.814;4.572;2023-07-24T07:35:37;21.90;99.90
19898;DHT22;10111;50.814;4.572;2023-07-24T07:38:03;21.90;99.90
19898;DHT22;10111;50.814;4.572;2023-07-24T07:40:29;22.00;99.90
19898;DHT22;10111;50.814;4.572;2023-07-24T07:42:56;22.00;99.90
19898;DHT22;10111;50.814;4.572;2023-07-24T07:45:23;21.90;99.90
19898;DHT22;10111;50.814;4.572;2023-07-24T07:47:49;21.80;99.90
19898;DHT22;10111;50.814;4.572;2023-07-24T07:50:14;21.60;99.90
19898;DHT22;10111;50.814;4.572;2023-07-24T07:52:40;21.60;99.90
19898;DHT22;10111;50.814;4.572;2023-07-24T07:55:06;21.40;99.90
19898;DHT22;10111;50.814;4.572;2023-07-24T07:57:36;21.50;99.90
19898;DHT22;10111;50.814;4.572;2023-07-24T08:00:03;21.50;99.90
19898;DHT22;10111;50.814;4.572;2023-07-24T08:02:29;21.40;99.90
19898;DHT22;10111;50.814;4.572;2023-07-24T08:04:57;21.30;99.90
19898;DHT22;10111;50.814;4.572;2023-07-24T08:07:23;21.30;99.90
19898;DHT22;10111;50.814;4.572;2023-07-24T08:09:48;21.30;99.90
19898;DHT22;10111;50.814;4.572;2023-07-24T08:12:14;21.40;99.90
19898;DHT22;10111;50.814;4.572;2023-07-24T08:14:40;21.40;99.90
19898;DHT22;10111;50.814;4.572;2023-07-24T08:17:05;21.40;99.90
19898;DHT22;10111;50.814;4.572;2023-07-24T08:19:31;21.60;99.90
19898;DHT22;10111;50.814;4.572;2023-07-24T08:21:57;21.80;99.90
19898;DHT22;10111;50.814;4.572;2023-07-24T08:24:22;22.10;99.90
19898;DHT22;10111;50.814;4.572;2023-07-24T08:26:48;22.30;99.90
19898;DHT22;10111;50.814;4.572;2023-07-24T08:29:14;22.40;99.90
19898;DHT22;10111;50.814;4.572;2023-07-24T08:31:40;22.50;99.90
19898;DHT22;10111;50.814;4.572;2023-07-24T08:34:05;22.50;99.90
19898;DHT22;10111;50.814;4.572;2023-07-24T08:36:31;22.50;99.90
19898;DHT22;10111;50.814;4.572;2023-07-24T08:38:57;22.50;99.90
19898;DHT22;10111;50.814;4.572;2023-07-24T08:41:23;22.40;99.90
19898;DHT22;10111;50.814;4.572;2023-07-24T08:43:49;22.20;99.90
19898;DHT22;10111;50.814;4.572;2023-07-24T08:46:18;22.20;99.90
19898;DHT22;10111;50.814;4.572;2023-07-24T08:48:43;22.20;99.90
19898;DHT22;10111;50.814;4.572;2023-07-24T08:51:11;22.10;99.90
19898;DHT22;10111;50.814;4.572;2023-07-24T08:53:39;21.90;99.90
19898;DHT22;10111;50.814;4.572;2023-07-24T08:56:06;21.70;99.90
19898;DHT22;10111;50.814;4.572;2023-07-24T08:58:32;21.50;99.90
19898;DHT22;10111;50.814;4.572;2023-07-24T09:00:59;21.30;99.90
19898;DHT22;10111;50.814;4.572;2023-07-24T09:03:25;21.10;99.90
19898;DHT22;10111;50.814;4.572;2023-07-24T09:05:51;20.90;99.90
19898;DHT22;10111;50.814;4.572;2023-07-24T09:08:17;20.70;99.90
19898;DHT22;10111;50.814;4.572;2023-07-24T09:10:42;20.60;99.90
19898;DHT22;10111;50.814;4.572;2023-07-24T09:13:11;20.60;99.90
19898;DHT22;10111;50.814;4.572;2023-07-24T09:15:43;20.50;99.90
19898;DHT22;10111;50.814;4.572;2023-07-24T09:18:09;20.40;99.90
19898;DHT22;10111;50.814;4.572;2023-07-24T09:20:42;20.30;99.90
19898;DHT22;10111;50.814;4.572;2023-07-24T09:23:10;20.30;99.90
19898;DHT22;10111;50.814;4.572;2023-07-24T09:25:37;20.30;99.90
19898;DHT22;10111;50.814;4.572;2023-07-24T09:28:13;20.40;99.90
19898;DHT22;10111;50.814;4.572;2023-07-24T09:30:40;20.40;99.90
19898;DHT22;10111;50.814;4.572;2023-07-24T09:33:06;20.30;99.90
19898;DHT22;10111;50.814;4.572;2023-07-24T09:35:32;20.20;99.90
19898;DHT22;10111;50.814;4.572;2023-07-24T09:38:09;20.10;99.90
19898;DHT22;10111;50.814;4.572;2023-07-24T09:40:45;20.00;99.90
19898;DHT22;10111;50.814;4.572;2023-07-24T09:45:43;19.70;99.90
19898;DHT22;10111;50.814;4.572;2023-07-24T09:48:09;19.70;99.90
19898;DHT22;10111;50.814;4.572;2023-07-24T09:50:38;19.80;99.90
19898;DHT22;10111;50.814;4.572;2023-07-24T09:53:06;19.90;99.90
19898;DHT22;10111;50.814;4.572;2023-07-24T09:55:43;20.10;99.90
19898;DHT22;10111;50.814;4.572;2023-07-24T09:58:11;20.40;99.90
19898;DHT22;10111;50.814;4.572;2023-07-24T10:00:37;20.80;99.90
19898;DHT22;10111;50.814;4.572;2023-07-24T10:03:03;21.40;99.90
19898;DHT22;10111;50.814;4.572;2023-07-24T10:05:30;22.00;99.90
19898;DHT22;10111;50.814;4.572;2023-07-24T10:07:55;22.50;99.90
19898;DHT22;10111;50.814;4.572;2023-07-24T10:10:25;22.70;99.90
19898;DHT22;10111;50.814;4.572;2023-07-24T10:12:52;23.00;99.90
19898;DHT22;10111;50.814;4.572;2023-07-24T10:15:18;23.30;99.90
19898;DHT22;10111;50.814;4.572;2023-07-24T10:17:44;23.30;99.90
19898;DHT22;10111;50.814;4.572;2023-07-24T10:20:11;23.30;99.90
19898;DHT22;10111;50.814;4.572;2023-07-24T10:22:41;23.40;99.90
19898;DHT22;10111;50.814;4.572;2023-07-24T10:25:08;23.50;99.90
19898;DHT22;10111;50.814;4.572;2023-07-24T10:27:45;23.60;99.90
19898;DHT22;10111;50.814;4.572;2023-07-24T10:30:11;23.60;99.90
19898;DHT22;10111;50.814;4.572;2023-07-24T10:32:47;23.50;99.90
19898;DHT22;10111;50.814;4.572;2023-07-24T10:35:15;23.60;99.90
19898;DHT22;10111;50.814;4.572;2023-07-24T10:37:41;23.50;99.90
19898;DHT22;10111;50.814;4.572;2023-07-24T10:40:19;23.40;99.90
19898;DHT22;10111;50.814;4.572;2023-07-24T10:42:45;23.40;99.90
19898;DHT22;10111;50.814;4.572;2023-07-24T10:45:11;23.50;99.90
19898;DHT22;10111;50.814;4.572;2023-07-24T10:47:37;23.50;99.90
19898;DHT22;10111;50.814;4.572;2023-07-24T10:50:03;23.50;99.90
19898;DHT22;10111;50.814;4.572;2023-07-24T10:52:32;23.40;99.90
19898;DHT22;10111;50.814;4.572;2023-07-24T10:55:02;23.30;99.90
19898;DHT22;10111;50.814;4.572;2023-07-24T10:57:31;23.10;99.90
19898;DHT22;10111;50.814;4.572;2023-07-24T10:59:58;23.10;99.90
19898;DHT22;10111;50.814;4.572;2023-07-24T11:02:24;23.10;99.90
19898;DHT22;10111;50.814;4.572;2023-07-24T11:04:50;23.10;99.90
19898;DHT22;10111;50.814;4.572;2023-07-24T11:07:16;23.00;99.90
19898;DHT22;10111;50.814;4.572;2023-07-24T11:09:42;23.00;99.90
19898;DHT22;10111;50.814;4.572;2023-07-24T11:12:15;23.00;99.90
19898;DHT22;10111;50.814;4.572;2023-07-24T11:14:51;23.10;99.90
19898;DHT22;10111;50.814;4.572;2023-07-24T11:17:19;23.20;99.90
19898;DHT22;10111;50.814;4.572;2023-07-24T11:19:45;23.10;99.90
19898;DHT22;10111;50.814;4.572;2023-07-24T11:22:12;22.90;99.90
19898;DHT22;10111;50.814;4.572;2023-07-24T11:24:46;22.70;99.90
19898;DHT22;10111;50.814;4.572;2023-07-24T11:27:16;22.60;99.90
19898;DHT22;10111;50.814;4.572;2023-07-24T11:29:48;22.60;99.90
19898;DHT22;10111;50.814;4.572;2023-07-24T11:32:20;22.40;99.90
19898;DHT22;10111;50.814;4.572;2023-07-24T11:34:50;22.40;99.90
19898;DHT22;10111;50.814;4.572;2023-07-24T11:37:17;22.50;99.90
19898;DHT22;10111;50.814;4.572;2023-07-24T11:39:57;22.60;99.90
19898;DHT22;10111;50.814;4.572;2023-07-24T11:42:27;22.50;99.90
19898;DHT22;10111;50.814;4.572;2023-07-24T11:44:53;22.30;99.90
19898;DHT22;10111;50.814;4.572;2023-07-24T11:47:19;22.20;99.90
19898;DHT22;10111;50.814;4.572;2023-07-24T11:49:56;22.30;99.90
19898;DHT22;10111;50.814;4.572;2023-07-24T11:52:22;22.30;99.90
19898;DHT22;10111;50.814;4.572;2023-07-24T11:54:56;22.40;99.90
19898;DHT22;10111;50.814;4.572;2023-07-24T11:57:27;22.60;99.90
19898;DHT22;10111;50.814;4.572;2023-07-24T11:59:52;22.70;99.90
19898;DHT22;10111;50.814;4.572;2023-07-24T12:02:19;22.80;99.90
19898;DHT22;10111;50.814;4.572;2023-07-24T12:04:45;22.90;99.90
19898;DHT22;10111;50.814;4.572;2023-07-24T12:07:10;23.00;99.90
19898;DHT22;10111;50.814;4.572;2023-07-24T12:09:36;23.00;99.90
19898;DHT22;10111;50.814;4.572;2023-07-24T12:12:03;23.10;99.90
19898;DHT22;10111;50.814;4.572;2023-07-24T12:14:30;22.90;99.90
19898;DHT22;10111;50.814;4.572;2023-07-24T12:17:01;22.70;99.90
19898;DHT22;10111;50.814;4.572;2023-07-24T12:19:26;22.60;99.90
19898;DHT22;10111;50.814;4.572;2023-07-24T12:21:52;22.60;99.90
19898;DHT22;10111;50.814;4.572;2023-07-24T12:24:18;22.60;99.90
19898;DHT22;10111;50.814;4.572;2023-07-24T12:26:43;22.50;99.90
19898;DHT22;10111;50.814;4.572;2023-07-24T12:29:09;22.60;99.90
19898;DHT22;10111;50.814;4.572;2023-07-24T12:31:35;22.80;99.90
19898;DHT22;10111;50.814;4.572;2023-07-24T12:34:00;23.00;99.90
19898;DHT22;10111;50.814;4.572;2023-07-24T12:36:26;23.30;99.90
19898;DHT22;10111;50.814;4.572;2023-07-24T12:38:52;23.70;99.90
19898;DHT22;10111;50.814;4.572;2023-07-24T12:41:18;23.80;99.90
19898;DHT22;10111;50.814;4.572;2023-07-24T12:43:44;23.90;99.90
19898;DHT22;10111;50.814;4.572;2023-07-24T12:46:10;23.90;99.90
19898;DHT22;10111;50.814;4.572;2023-07-24T12:48:35;23.80;99.90
19898;DHT22;10111;50.814;4.572;2023-07-24T12:51:02;23.70;99.90
19898;DHT22;10111;50.814;4.572;2023-07-24T12:53:28;23.60;99.90
19898;DHT22;10111;50.814;4.572;2023-07-24T12:55:53;23.70;99.90
19898;DHT22;10111;50.814;4.572;2023-07-24T12:58:19;23.80;99.90
19898;DHT22;10111;50.814;4.572;2023-07-24T13:00:45;23.70;99.90
19898;DHT22;10111;50.814;4.572;2023-07-24T13:03:10;23.90;99.90
19898;DHT22;10111;50.814;4.572;2023-07-24T13:05:37;24.00;99.90
19898;DHT22;10111;50.814;4.572;2023-07-24T13:08:03;24.20;99.90
19898;DHT22;10111;50.814;4.572;2023-07-24T13:10:29;24.40;99.90
19898;DHT22;10111;50.814;4.572;2023-07-24T13:12:55;24.60;99.90
19898;DHT22;10111;50.814;4.572;2023-07-24T13:15:21;24.50;99.90
19898;DHT22;10111;50.814;4.572;2023-07-24T13:17:48;24.60;99.90
19898;DHT22;10111;50.814;4.572;2023-07-24T13:20:13;24.70;99.90
19898;DHT22;10111;50.814;4.572;2023-07-24T13:22:39;24.70;99.90
19898;DHT22;10111;50.814;4.572;2023-07-24T13:25:05;24.50;99.90
19898;DHT22;10111;50.814;4.572;2023-07-24T13:27:31;24.40;99.90
19898;DHT22;10111;50.814;4.572;2023-07-24T13:29:57;24.10;99.90
19898;DHT22;10111;50.814;4.572;2023-07-24T13:32:23;23.90;99.90
19898;DHT22;10111;50.814;4.572;2023-07-24T13:34:48;23.70;99.90
19898;DHT22;10111;50.814;4.572;2023-07-24T13:37:14;23.80;99.90
19898;DHT22;10111;50.814;4.572;2023-07-24T13:39:39;23.90;99.90
19898;DHT22;10111;50.814;4.572;2023-07-24T13:42:05;24.00;99.90
19898;DHT22;10111;50.814;4.572;2023-07-24T13:44:31;24.10;99.90
19898;DHT22;10111;50.814;4.572;2023-07-24T13:46:57;24.20;99.90
19898;DHT22;10111;50.814;4.572;2023-07-24T13:49:22;24.20;99.90
19898;DHT22;10111;50.814;4.572;2023-07-24T13:51:48;24.00;99.90
19898;DHT22;10111;50.814;4.572;2023-07-24T13:54:13;24.00;99.90
19898;DHT22;10111;50.814;4.572;2023-07-24T13:56:39;24.00;99.90
19898;DHT22;10111;50.814;4.572;2023-07-24T13:59:05;23.90;99.90
19898;DHT22;10111;50.814;4.572;2023-07-24T14:01:30;23.80;99.90
19898;DHT22;10111;50.814;4.572;2023-07-24T14:03:56;23.60;99.90
19898;DHT22;10111;50.814;4.572;2023-07-24T14:06:22;23.60;99.90
19898;DHT22;10111;50.814;4.572;2023-07-24T14:08:47;23.80;99.90
19898;DHT22;10111;50.814;4.572;2023-07-24T14:11:13;23.90;99.90
19898;DHT22;10111;50.814;4.572;2023-07-24T14:13:38;23.80;99.90
19898;DHT22;10111;50.814;4.572;2023-07-24T14:16:04;23.70;99.90
19898;DHT22;10111;50.814;4.572;2023-07-24T14:18:30;23.70;99.90
19898;DHT22;10111;50.814;4.572;2023-07-24T14:20:55;23.60;99.90
19898;DHT22;10111;50.814;4.572;2023-07-24T14:23:22;23.70;99.90
19898;DHT22;10111;50.814;4.572;2023-07-24T14:25:48;23.90;99.90
19898;DHT22;10111;50.814;4.572;2023-07-24T14:28:13;23.90;99.90
19898;DHT22;10111;50.814;4.572;2023-07-24T14:30:39;23.80;99.90
19898;DHT22;10111;50.814;4.572;2023-07-24T14:33:05;23.70;99.90
19898;DHT22;10111;50.814;4.572;2023-07-24T14:35:30;23.80;99.90
19898;DHT22;10111;50.814;4.572;2023-07-24T14:37:56;23.70;99.90
19898;DHT22;10111;50.814;4.572;2023-07-24T14:40:22;23.70;99.90
19898;DHT22;10111;50.814;4.572;2023-07-24T14:42:47;23.60;99.90
19898;DHT22;10111;50.814;4.572;2023-07-24T14:45:13;23.70;99.90
19898;DHT22;10111;50.814;4.572;2023-07-24T14:47:38;23.80;99.90
19898;DHT22;10111;50.814;4.572;2023-07-24T14:50:05;23.90;99.90
19898;DHT22;10111;50.814;4.572;2023-07-24T14:52:30;23.90;99.90
19898;DHT22;10111;50.814;4.572;2023-07-24T14:54:56;23.90;99.90
19898;DHT22;10111;50.814;4.572;2023-07-24T14:57:22;23.70;99.90
19898;DHT22;10111;50.814;4.572;2023-07-24T14:59:47;23.60;99.90
19898;DHT22;10111;50.814;4.572;2023-07-24T15:02:13;23.40;99.90
19898;DHT22;10111;50.814;4.572;2023-07-24T15:04:38;23.40;99.90
19898;DHT22;10111;50.814;4.572;2023-07-24T15:07:04;23.40;99.90
19898;DHT22;10111;50.814;4.572;2023-07-24T15:09:30;23.30;99.90
19898;DHT22;10111;50.814;4.572;2023-07-24T15:11:56;23.30;99.90
19898;DHT22;10111;50.814;4.572;2023-07-24T15:14:22;23.30;99.90
19898;DHT22;10111;50.814;4.572;2023-07-24T15:16:50;23.10;99.90
19898;DHT22;10111;50.814;4.572;2023-07-24T15:19:16;22.80;99.90
19898;DHT22;10111;50.814;4.572;2023-07-24T15:21:41;22.40;99.90
19898;DHT22;10111;50.814;4.572;2023-07-24T15:24:07;22.10;99.90
19898;DHT22;10111;50.814;4.572;2023-07-24T15:26:32;21.90;99.90
19898;DHT22;10111;50.814;4.572;2023-07-24T15:28:58;21.70;99.90